Medicine Lake, Minnesota
Current Conditions -  °F | °C
As of 1:17 PM on Thursday 18 Dec 2014 (Local Time) from KMIC Reporting Station
Light Snow Light Snow  
Wind Chill: 22°   Ceiling: 2200
Heat Index: 22°   Visibility: 2.5mi
Dew Point: 16°   Wind: 3mph
Humidity: 78%   Direction: 150°SSE
Pressure: 30.26"   Gusts: NA
Location:  45.0038°N, 93.4289°W
Report Text: KMIC 181917Z 15003KT 2 1/2SM -SN OVC022 M06/M09 A3026 RMK AO2 SNB01 P0000 T10561089
Loading
Personal Weather Stations






























Interactive Weather Map New forecast layout! Learn more

10-Day Weather Forecast

Advertisements
Track Severe Weather on mobile